createdAt,value
2018-02-03T00:02:02.288Z,80.55
2018-02-03T00:04:30.612Z,80.64
2018-02-03T00:06:58.928Z,80.62
2018-02-03T00:09:27.262Z,80.53
2018-02-03T00:11:55.572Z,80.42
2018-02-03T00:14:23.884Z,80.31
2018-02-03T00:16:52.220Z,80.25
2018-02-03T00:19:20.527Z,80.09
2018-02-03T00:21:48.860Z,79.82
2018-02-03T00:24:18.911Z,79.46
2018-02-03T00:26:47.201Z,79.13
2018-02-03T00:29:15.514Z,78.91
2018-02-03T00:31:43.813Z,78.57
2018-02-03T00:34:12.199Z,78.44
2018-02-03T00:36:40.502Z,78.31
2018-02-03T00:39:08.799Z,78.26
2018-02-03T00:41:37.130Z,78.35
2018-02-03T00:44:05.459Z,78.38
2018-02-03T00:46:34.262Z,78.50
2018-02-03T00:49:02.570Z,78.65
2018-02-03T00:51:30.878Z,78.82
2018-02-03T00:53:59.182Z,79.16
2018-02-03T00:56:28.299Z,79.20
2018-02-03T00:58:56.684Z,79.18
2018-02-03T01:01:24.997Z,79.18
2018-02-03T01:03:53.297Z,79.24
2018-02-03T01:06:21.600Z,79.28
2018-02-03T01:08:51.626Z,79.21
2018-02-03T01:11:20.700Z,79.57
2018-02-03T01:13:49.019Z,79.85
2018-02-03T01:16:17.318Z,79.72
2018-02-03T01:18:45.651Z,79.61
2018-02-03T01:21:13.971Z,79.68
2018-02-03T01:23:42.278Z,79.74
2018-02-03T01:26:10.619Z,79.66
2018-02-03T01:28:39.720Z,79.76
2018-02-03T01:31:08.118Z,79.70
2018-02-03T01:33:36.432Z,79.95
2018-02-03T01:36:04.723Z,80.09
2018-02-03T01:38:33.038Z,80.15
2018-02-03T01:41:02.119Z,80.18
2018-02-03T01:43:30.549Z,80.08
2018-02-03T01:45:58.930Z,79.95
2018-02-03T01:48:27.315Z,79.74
2018-02-03T01:50:55.632Z,79.80
2018-02-03T01:53:23.980Z,79.80
2018-02-03T01:55:52.360Z,79.93
2018-02-03T01:58:20.662Z,79.83
2018-02-03T02:00:49.027Z,79.95
2018-02-03T02:03:17.320Z,80.02
2018-02-03T02:05:45.625Z,79.95
2018-02-03T02:08:13.928Z,79.72
2018-02-03T02:10:42.300Z,79.76
2018-02-03T02:13:10.624Z,79.77
2018-02-03T02:15:39.020Z,79.83
2018-02-03T02:18:07.332Z,79.87
2018-02-03T02:20:35.623Z,79.92
2018-02-03T02:23:04.706Z,79.92
2018-02-03T02:25:33.035Z,79.84
2018-02-03T02:28:02.138Z,80.08
2018-02-03T02:30:31.219Z,80.00
2018-02-03T02:32:59.541Z,79.69
2018-02-03T02:35:27.925Z,79.56
2018-02-03T02:37:56.224Z,79.55
2018-02-03T02:40:24.590Z,79.49
2018-02-03T02:42:52.835Z,79.54
2018-02-03T02:45:21.944Z,79.46
2018-02-03T02:47:51.045Z,79.25
2018-02-03T02:50:19.361Z,79.16
2018-02-03T02:52:47.700Z,79.12
2018-02-03T02:55:16.012Z,78.96
2018-02-03T02:57:44.313Z,78.79
2018-02-03T03:00:12.607Z,78.97
2018-02-03T03:02:40.932Z,78.81
2018-02-03T03:05:09.979Z,78.82
2018-02-03T03:07:38.299Z,78.89
2018-02-03T03:10:06.702Z,78.73
2018-02-03T03:12:35.763Z,78.91
2018-02-03T03:15:04.060Z,78.79
2018-02-03T03:17:32.367Z,78.92
2018-02-03T03:20:01.481Z,78.78
2018-02-03T03:22:29.803Z,78.63
2018-02-03T03:24:58.137Z,78.70
2018-02-03T03:27:27.179Z,78.85
2018-02-03T03:29:55.485Z,78.80
2018-02-03T03:32:23.794Z,78.78
2018-02-03T03:34:52.853Z,78.73
2018-02-03T03:37:21.189Z,78.66
2018-02-03T03:39:49.519Z,78.61
2018-02-03T03:42:17.817Z,78.47
2018-02-03T03:44:46.147Z,78.59
2018-02-03T03:47:14.459Z,78.54
2018-02-03T03:49:42.751Z,78.46
2018-02-03T03:52:11.077Z,78.42
2018-02-03T03:54:40.217Z,78.76
2018-02-03T03:57:09.329Z,78.69
2018-02-03T03:59:37.637Z,78.74
2018-02-03T04:02:06.704Z,78.86
2018-02-03T04:04:35.025Z,78.92
2018-02-03T04:07:03.336Z,78.57
2018-02-03T04:09:31.637Z,78.73
2018-02-03T04:11:59.929Z,78.83
2018-02-03T04:14:28.905Z,78.84
2018-02-03T04:16:57.228Z,79.04
2018-02-03T04:19:26.364Z,79.01
2018-02-03T04:21:54.645Z,78.92
2018-02-03T04:24:22.945Z,79.25
2018-02-03T04:26:51.245Z,79.19
2018-02-03T04:29:19.587Z,79.10
2018-02-03T04:31:48.015Z,79.17
2018-02-03T04:34:16.361Z,79.36
2018-02-03T04:36:44.757Z,79.56
2018-02-03T04:39:13.051Z,79.67
2018-02-03T04:41:41.361Z,79.44
2018-02-03T04:44:09.673Z,79.29
2018-02-03T04:46:38.017Z,79.07
2018-02-03T04:49:06.322Z,79.17
2018-02-03T04:51:35.381Z,79.19
2018-02-03T04:54:03.705Z,79.46
2018-02-03T04:56:32.771Z,79.59
2018-02-03T04:59:01.078Z,79.63
2018-02-03T05:01:30.192Z,79.60
2018-02-03T05:03:59.267Z,79.47
2018-02-03T05:06:27.560Z,79.70
2018-02-03T05:08:56.611Z,79.71
2018-02-03T05:11:24.898Z,79.54
2018-02-03T05:13:53.207Z,79.38
2018-02-03T05:16:21.538Z,79.63
2018-02-03T05:18:49.877Z,79.65
2018-02-03T05:21:18.196Z,79.64
2018-02-03T05:23:46.506Z,79.36
2018-02-03T05:26:14.800Z,79.53
2018-02-03T05:28:43.119Z,79.57
2018-02-03T05:31:12.189Z,79.53
2018-02-03T05:33:40.495Z,79.48
2018-02-03T05:36:08.826Z,79.34
2018-02-03T05:38:37.121Z,79.21
2018-02-03T05:41:05.415Z,79.28
2018-02-03T05:43:46.598Z,79.14
2018-02-03T05:46:14.943Z,78.83
2018-02-03T05:48:43.288Z,78.95
2018-02-03T05:51:11.622Z,78.93
2018-02-03T05:53:39.934Z,79.05
2018-02-03T05:56:08.248Z,79.12
2018-02-03T05:58:36.558Z,79.07
2018-02-03T06:01:04.912Z,78.83
2018-02-03T06:03:33.208Z,78.99
2018-02-03T06:06:01.504Z,78.80
2018-02-03T06:08:29.804Z,78.64
2018-02-03T06:10:58.126Z,78.72
2018-02-03T06:13:27.240Z,78.89
2018-02-03T06:15:55.536Z,79.03
2018-02-03T06:18:23.830Z,79.31
2018-02-03T06:20:52.148Z,79.72
2018-02-03T06:23:21.228Z,79.74
2018-02-03T06:25:49.548Z,80.05
2018-02-03T06:28:18.685Z,80.16
2018-02-03T06:30:46.996Z,80.42
2018-02-03T06:33:15.314Z,80.67
2018-02-03T06:35:43.646Z,80.94
2018-02-03T06:38:11.992Z,81.21
2018-02-03T06:40:40.286Z,81.54
2018-02-03T06:43:08.610Z,81.85
2018-02-03T06:45:36.920Z,82.03
2018-02-03T06:48:06.010Z,82.07
2018-02-03T06:50:35.685Z,82.25
2018-02-03T06:53:04.034Z,82.14
2018-02-03T06:55:32.924Z,82.34
2018-02-03T06:58:01.270Z,82.42
2018-02-03T07:00:29.590Z,82.47
2018-02-03T07:02:57.925Z,82.44
2018-02-03T07:05:26.236Z,82.55
2018-02-03T07:07:55.352Z,82.78
2018-02-03T07:10:24.423Z,83.00
2018-02-03T07:12:53.531Z,83.02
2018-02-03T07:15:22.616Z,83.22
2018-02-03T07:17:50.922Z,83.29
2018-02-03T07:20:19.238Z,83.37
2018-02-03T07:22:47.542Z,83.51
2018-02-03T07:25:15.839Z,83.57
2018-02-03T07:27:44.173Z,83.72
2018-02-03T07:30:12.480Z,83.83
2018-02-03T07:32:40.790Z,83.99
2018-02-03T07:35:09.878Z,84.15
2018-02-03T07:37:38.214Z,84.15
2018-02-03T07:40:06.532Z,84.26
2018-02-03T07:42:34.874Z,84.49
2018-02-03T07:45:03.206Z,84.60
2018-02-03T07:47:31.523Z,84.71
2018-02-03T07:49:59.854Z,84.72
2018-02-03T07:52:28.233Z,84.70
2018-02-03T07:54:56.538Z,84.77
2018-02-03T07:57:24.864Z,84.87
2018-02-03T07:59:53.185Z,84.95
2018-02-03T08:02:21.473Z,84.90
2018-02-03T08:04:49.770Z,84.87
2018-02-03T08:07:18.063Z,85.05
2018-02-03T08:09:46.376Z,85.20
2018-02-03T08:12:14.704Z,85.37
2018-02-03T08:14:43.106Z,85.41
2018-02-03T08:17:12.191Z,85.55
2018-02-03T08:19:40.533Z,85.54
2018-02-03T08:22:08.844Z,85.47
2018-02-03T08:24:37.328Z,85.68
2018-02-03T08:27:05.690Z,85.79
2018-02-03T08:29:34.044Z,85.99
2018-02-03T08:32:02.361Z,86.18
2018-02-03T08:34:30.681Z,86.28
2018-02-03T08:36:59.776Z,86.37
2018-02-03T08:39:29.137Z,86.29
2018-02-03T08:41:57.448Z,86.38
2018-02-03T08:44:25.746Z,86.57
2018-02-03T08:46:54.129Z,86.67
2018-02-03T08:49:23.236Z,86.77
2018-02-03T08:51:52.330Z,86.89
2018-02-03T08:54:21.429Z,86.99
2018-02-03T08:56:50.507Z,87.18
2018-02-03T08:59:18.805Z,87.23
2018-02-03T09:01:47.188Z,87.33
2018-02-03T09:04:15.510Z,87.30
2018-02-03T09:06:43.834Z,87.34
2018-02-03T09:09:12.177Z,87.33
2018-02-03T09:14:40.790Z,87.45
2018-02-03T09:17:09.090Z,87.27
2018-02-03T09:19:37.400Z,87.12
2018-02-03T09:22:06.526Z,86.95
2018-02-03T09:24:34.874Z,86.87
2018-02-03T09:27:03.196Z,86.86
2018-02-03T09:29:31.571Z,86.90
2018-02-03T09:32:10.454Z,86.65
2018-02-03T09:45:55.183Z,85.54
2018-02-03T09:48:23.568Z,85.25
2018-02-03T09:50:51.896Z,85.18
2018-02-03T09:53:21.102Z,84.94
2018-02-03T09:55:49.476Z,85.05
2018-02-03T09:58:18.569Z,84.80
2018-02-03T10:00:46.922Z,84.60
2018-02-03T10:03:15.252Z,84.44
2018-02-03T10:05:43.618Z,84.63
2018-02-03T10:08:12.726Z,85.01
2018-02-03T10:10:41.014Z,84.89
2018-02-03T10:13:09.340Z,85.23
2018-02-03T10:15:37.706Z,85.13
2018-02-03T10:18:06.108Z,85.47
2018-02-03T10:20:34.458Z,85.74
2018-02-03T10:23:02.787Z,85.57
2018-02-03T10:25:31.198Z,85.01
2018-02-03T10:27:59.566Z,85.41
2018-02-03T10:30:28.756Z,85.55
2018-02-03T10:32:58.022Z,85.52
2018-02-03T10:35:26.351Z,85.44
2018-02-03T10:37:56.081Z,85.13
2018-02-03T10:40:24.422Z,85.29
2018-02-03T10:42:52.846Z,85.24
2018-02-03T10:45:21.200Z,84.94
2018-02-03T10:47:49.534Z,85.20
2018-02-03T10:50:17.848Z,85.57
2018-02-03T10:52:47.803Z,85.42
2018-02-03T10:55:16.178Z,85.52
2018-02-03T10:57:44.578Z,85.27
2018-02-03T11:00:13.728Z,85.31
2018-02-03T11:02:42.078Z,84.73
2018-02-03T11:05:10.375Z,83.98
2018-02-03T11:07:38.791Z,83.64
2018-02-03T11:10:07.946Z,82.79
2018-02-03T11:12:36.359Z,82.00
2018-02-03T11:15:04.684Z,82.02
2018-02-03T11:17:33.175Z,81.25
2018-02-03T11:20:01.478Z,80.44
2018-02-03T11:22:29.822Z,80.27
2018-02-03T11:24:59.041Z,79.75
2018-02-03T11:27:28.392Z,79.84
2018-02-03T11:29:56.986Z,78.90
2018-02-03T11:32:26.078Z,79.25
2018-02-03T11:34:54.413Z,80.11
2018-02-03T11:37:22.755Z,80.47
2018-02-03T11:39:51.106Z,80.10
2018-02-03T11:42:19.425Z,79.84
2018-02-03T11:44:48.491Z,79.29
2018-02-03T11:47:16.782Z,78.66
2018-02-03T11:49:45.070Z,78.20
2018-02-03T11:52:13.370Z,78.06
2018-02-03T11:54:42.426Z,78.29
2018-02-03T11:57:10.714Z,77.59
2018-02-03T11:59:39.060Z,76.96
2018-02-03T12:02:08.068Z,75.01
2018-02-03T12:04:36.412Z,74.45
2018-02-03T12:07:05.138Z,73.80
2018-02-03T12:09:33.447Z,74.07
2018-02-03T12:12:01.779Z,74.55
2018-02-03T12:14:30.134Z,73.90
2018-02-03T12:16:59.880Z,74.13
2018-02-03T12:19:28.250Z,73.88
2018-02-03T12:21:56.660Z,74.12
2018-02-03T12:24:25.026Z,73.40
2018-02-03T12:26:53.397Z,73.26
2018-02-03T12:29:21.723Z,72.41
2018-02-03T12:31:50.032Z,72.64
2018-02-03T12:34:19.126Z,73.33
2018-02-03T12:36:48.288Z,74.42
2018-02-03T12:39:16.634Z,75.39
2018-02-03T12:41:44.954Z,75.83
2018-02-03T12:44:13.264Z,76.24
2018-02-03T12:46:41.725Z,76.51
2018-02-03T12:49:10.182Z,76.87
2018-02-03T12:51:39.423Z,77.32
2018-02-03T12:54:07.832Z,77.82
2018-02-03T12:56:36.140Z,78.11
2018-02-03T12:59:05.545Z,78.34
2018-02-03T13:01:33.924Z,78.52
2018-02-03T13:04:02.314Z,78.51
2018-02-03T13:06:30.724Z,78.55
2018-02-03T13:08:59.258Z,78.41
2018-02-03T13:11:28.431Z,78.56
2018-02-03T13:13:56.780Z,79.24
2018-02-03T13:16:25.191Z,79.05
2018-02-03T13:18:53.558Z,79.24
2018-02-03T13:21:21.893Z,79.00
2018-02-03T13:23:50.212Z,79.04
2018-02-03T13:26:18.565Z,79.00
2018-02-03T13:28:46.941Z,79.28
2018-02-03T13:31:15.275Z,78.97
2018-02-03T13:33:43.582Z,78.87
2018-02-03T13:36:12.663Z,78.98
2018-02-03T13:38:40.995Z,79.03
2018-02-03T13:41:09.374Z,78.94
2018-02-03T13:43:37.668Z,78.52
2018-02-03T13:46:06.026Z,79.68
2018-02-03T13:48:34.337Z,79.05
2018-02-03T13:51:03.455Z,79.48
2018-02-03T13:53:31.798Z,79.25
2018-02-03T13:56:00.260Z,78.56
2018-02-03T13:58:29.385Z,78.21
2018-02-03T14:00:57.661Z,77.82
2018-02-03T14:03:26.092Z,77.40
2018-02-03T14:05:54.470Z,77.48
2018-02-03T14:08:22.794Z,77.41
2018-02-03T14:10:51.204Z,77.45
2018-02-03T14:13:19.506Z,76.81
2018-02-03T14:15:47.829Z,76.52
2018-02-03T14:18:16.139Z,76.40
2018-02-03T14:20:44.429Z,76.39
2018-02-03T14:23:12.975Z,76.68
2018-02-03T14:25:42.062Z,76.80
2018-02-03T14:28:11.697Z,76.45
2018-02-03T14:30:40.044Z,76.34
2018-02-03T14:33:08.370Z,76.31
2018-02-03T14:35:36.713Z,76.18
2018-02-03T14:38:05.804Z,75.92
2018-02-03T14:40:34.217Z,76.41
2018-02-03T14:43:04.950Z,76.41
2018-02-03T14:45:36.134Z,76.75
2018-02-03T14:48:04.575Z,77.24
2018-02-03T14:50:33.595Z,77.50
2018-02-03T14:53:02.105Z,77.37
2018-02-03T14:55:30.869Z,77.42
2018-02-03T14:57:59.522Z,77.83
2018-02-03T15:00:29.509Z,77.26
2018-02-03T15:02:58.808Z,77.47
2018-02-03T15:05:27.138Z,78.57
2018-02-03T15:07:56.485Z,78.80
2018-02-03T15:10:28.700Z,79.33
2018-02-03T15:12:57.242Z,79.37
2018-02-03T15:15:25.604Z,79.24
2018-02-03T15:17:54.059Z,79.11
2018-02-03T15:20:24.099Z,78.94
2018-02-03T15:22:53.244Z,78.68
2018-02-03T15:25:22.463Z,78.39
2018-02-03T15:27:50.977Z,78.31
2018-02-03T15:30:19.624Z,78.41
2018-02-03T15:32:47.981Z,79.04
2018-02-03T15:35:16.341Z,79.84
2018-02-03T15:37:44.731Z,79.50
2018-02-03T15:40:13.168Z,79.48
2018-02-03T15:42:41.585Z,79.34
2018-02-03T16:23:01.408Z,78.16
2018-02-03T16:25:29.742Z,78.04
2018-02-03T16:27:58.817Z,78.43
2018-02-03T16:30:27.135Z,79.24
2018-02-03T16:32:55.431Z,79.49
2018-02-03T16:35:23.799Z,79.17
2018-02-03T16:37:52.128Z,79.61
2018-02-03T16:40:20.457Z,79.55
2018-02-03T16:42:49.273Z,79.33
2018-02-03T16:45:18.409Z,79.14
2018-02-03T16:47:46.709Z,79.65
2018-02-03T16:50:15.018Z,80.10
2018-02-03T16:52:43.347Z,80.10
2018-02-03T16:55:11.661Z,80.82
2018-02-03T16:57:40.721Z,81.03
2018-02-03T17:00:09.104Z,81.58
2018-02-03T17:02:37.409Z,81.93
2018-02-03T17:05:05.715Z,82.46
2018-02-03T17:07:34.037Z,82.84
2018-02-03T17:10:02.345Z,83.26
2018-02-03T17:12:31.490Z,83.71
2018-02-03T18:04:31.197Z,91.06
2018-02-03T18:07:05.122Z,90.72
2018-02-03T18:09:34.303Z,90.49
2018-02-03T18:12:03.515Z,90.45
2018-02-03T18:14:31.838Z,90.26
2018-02-03T18:17:00.409Z,90.15
2018-02-03T18:19:30.258Z,89.99
2018-02-03T18:21:58.577Z,89.92
2018-02-03T18:24:27.542Z,89.67
2018-02-03T18:26:56.211Z,89.72
2018-02-03T18:29:24.530Z,89.73
2018-02-03T18:31:54.416Z,89.58
2018-02-03T18:34:22.814Z,89.59
2018-02-03T18:36:51.993Z,89.39
2018-02-03T18:39:20.869Z,88.92
2018-02-03T18:41:49.175Z,89.01
2018-02-03T18:44:17.570Z,88.99
2018-02-03T18:46:45.956Z,88.75
2018-02-03T18:49:14.293Z,88.55
2018-02-03T18:51:42.617Z,88.37
2018-02-03T18:54:10.987Z,88.28
2018-02-03T18:56:39.297Z,88.26
2018-02-03T18:59:07.679Z,87.92
2018-02-03T19:01:36.027Z,87.84
2018-02-03T19:04:04.406Z,87.97
2018-02-03T19:06:32.701Z,87.93
2018-02-03T19:09:01.036Z,87.60
2018-02-03T19:11:30.120Z,87.67
2018-02-03T19:13:59.213Z,87.73
2018-02-03T19:16:27.580Z,87.72
2018-02-03T19:18:55.877Z,87.44
2018-02-03T19:21:24.962Z,87.46
2018-02-03T19:23:54.119Z,87.53
2018-02-03T19:26:22.417Z,87.52
2018-02-03T19:28:50.832Z,87.35
2018-02-03T19:31:19.164Z,87.24
2018-02-03T19:33:47.490Z,87.25
2018-02-03T19:36:15.814Z,87.30
2018-02-03T19:38:44.927Z,87.06
2018-02-03T19:41:13.256Z,86.91
2018-02-03T19:43:41.551Z,86.80
2018-02-03T19:46:10.674Z,86.82
2018-02-03T19:48:38.995Z,86.67
2018-02-03T19:51:07.552Z,86.51
2018-02-03T19:53:35.907Z,86.43
2018-02-03T19:56:05.577Z,86.36
2018-02-03T19:58:33.912Z,86.38
2018-02-03T20:01:03.010Z,86.12
2018-02-03T20:03:32.134Z,85.94
2018-02-03T20:06:00.483Z,85.89
2018-02-03T20:08:29.718Z,85.82
2018-02-03T20:10:58.097Z,85.71
2018-02-03T20:13:26.427Z,85.69
2018-02-03T20:15:54.765Z,85.78
2018-02-03T20:18:23.115Z,85.77
2018-02-03T20:20:52.225Z,85.83
2018-02-03T20:23:21.319Z,85.84
2018-02-03T20:25:50.416Z,85.59
2018-02-03T20:28:18.728Z,85.72
2018-02-03T20:30:47.040Z,85.71
2018-02-03T20:33:15.344Z,85.73
2018-02-03T20:35:44.584Z,85.66
2018-02-03T20:38:12.911Z,85.47
2018-02-03T20:40:41.213Z,85.38
2018-02-03T20:43:09.540Z,85.35
2018-02-03T20:45:37.887Z,85.27
2018-02-03T20:48:07.015Z,85.30
2018-02-03T20:50:35.535Z,85.31
2018-02-03T20:53:03.871Z,85.20
2018-02-03T20:55:32.946Z,84.93
2018-02-03T20:58:02.259Z,84.71
2018-02-03T21:00:30.586Z,84.50
2018-02-03T21:02:58.896Z,84.35
2018-02-03T21:05:27.216Z,84.44
2018-02-03T21:07:56.320Z,84.47
2018-02-03T21:10:25.745Z,83.89
2018-02-03T21:12:54.061Z,83.77
2018-02-03T21:15:23.126Z,83.61
2018-02-03T21:17:52.216Z,83.35
2018-02-03T21:20:21.298Z,83.28
2018-02-03T21:22:50.404Z,83.43
2018-02-03T21:25:19.513Z,83.37
2018-02-03T21:27:48.600Z,83.41
2018-02-03T21:30:16.932Z,83.42
2018-02-03T21:32:45.256Z,83.34
2018-02-03T21:35:14.403Z,83.28
2018-02-03T21:37:42.722Z,83.25
2018-02-03T21:40:11.062Z,82.96
2018-02-03T21:42:39.420Z,82.62
2018-02-03T21:45:08.502Z,82.55
2018-02-03T21:47:36.800Z,82.33
2018-02-03T21:50:06.631Z,82.19
2018-02-03T21:52:34.918Z,81.12
2018-02-03T21:55:03.288Z,80.72
2018-02-03T21:57:32.394Z,80.55
2018-02-03T22:00:00.735Z,80.31
2018-02-03T22:02:29.028Z,80.10
2018-02-03T22:04:57.355Z,79.35
2018-02-03T22:07:25.642Z,78.79
2018-02-03T22:09:53.956Z,78.76
2018-02-03T22:12:22.250Z,78.89
2018-02-03T22:14:50.568Z,78.53
2018-02-03T22:17:18.926Z,77.88
2018-02-03T22:19:47.232Z,78.14
2018-02-03T22:22:16.318Z,77.61
2018-02-03T22:24:45.377Z,77.21
2018-02-03T22:27:13.712Z,76.36
2018-02-03T22:29:42.822Z,76.32
2018-02-03T22:32:11.376Z,75.97
2018-02-03T22:34:39.750Z,76.27
2018-02-03T22:37:08.274Z,76.22
2018-02-03T22:39:36.583Z,75.52
2018-02-03T22:42:04.873Z,75.84
2018-02-03T22:44:33.212Z,76.01
2018-02-03T22:47:02.272Z,75.56
2018-02-03T22:49:30.942Z,75.71
2018-02-03T22:51:59.246Z,75.70
2018-02-03T22:54:27.556Z,75.73
2018-02-03T22:56:56.636Z,75.73
2018-02-03T22:59:24.948Z,75.35
2018-02-03T23:01:53.958Z,74.55
2018-02-03T23:04:22.300Z,74.43
2018-02-03T23:06:50.605Z,74.63
2018-02-03T23:09:19.760Z,74.78
2018-02-03T23:11:48.060Z,74.86
2018-02-03T23:14:16.398Z,75.01
2018-02-03T23:16:44.716Z,74.97
2018-02-03T23:19:13.032Z,75.18
2018-02-03T23:21:41.356Z,75.35
2018-02-03T23:24:09.666Z,75.31
2018-02-03T23:26:38.028Z,75.19
2018-02-03T23:29:06.996Z,74.89
2018-02-03T23:31:35.496Z,74.50
2018-02-03T23:34:04.028Z,74.70
2018-02-03T23:36:32.322Z,74.83
2018-02-03T23:39:01.385Z,75.06
2018-02-03T23:41:29.736Z,75.08
2018-02-03T23:43:58.062Z,75.06
2018-02-03T23:46:26.412Z,75.06
2018-02-03T23:48:54.747Z,75.07
2018-02-03T23:51:23.070Z,75.29
2018-02-03T23:53:51.416Z,75.27
2018-02-03T23:56:20.469Z,75.08
2018-02-03T23:58:49.104Z,74.69
